LFMNLFMD

Guest
Details From LFMN - Nice/Cote d'Azur
To LFMD - Mandelieu
Flight Number -
Tags decoded
Created
Modified
Stats Distance 15 nm / 28 km
Max Altitude 0 ft / 0 m
Waypoints 3
Social Downloads 1
Likes 0
Share

Download

Looking for another format? Having issues loading an existing format? Contact us
Advertisement - Login to hide

Notes

Requested: LFMN MN226 LFMD

Route

LFMN MN226 LFMD

ID Type Via Altitude (ft/m) Position (lat/lon) Dist (leg/tot) Name
O LFMN APT - 0 / 0 43.65798 / 7.21536 - / 0 nm Nice/Cote d'Azur
MN226 FIX - 0 / 0 43.52603 / 7.04639 10 / 10 nm
O LFMD APT - 0 / 0 43.54673 / 6.95310 4 / 15 nm Mandelieu

Altitude Profile

Advertisement - Login to hide

LFMN

Details ICAO LFMN (NCE)
Name Nice-Cote d'Azur
Region France
Timezone Unknown
Stats Elevation 12 ft / 4 m (AMSL)
Location 43.658400° 7.215760°
Runways 2
Magnetic Variation 2.338° E

METAR

LFMN 222030Z 07015KT CAVOK 20/16 Q1020 NOSIG

Decode

TAF

TAF LFMN 222000Z 2221/2403 07015KT CAVOK BECMG 2221/2223 07005KT TEMPO 2223/2311 34010KT BECMG 2319/2321 34010KT PROB30 TEMPO 2321/2324 BKN012

Decode

Departure Runways

ID Width Length Bearing (true/mag) Surface Threshold Overrun Markings Lighting
04L 148 ft / 45 m 8,992 ft / 2,741 m 44.86° / 42.52° ASPHALT 0 ft / 0 m 161 ft / 49 m PREC-APP CENTERLINE EDGE THRESHOLD REIL-OMNI
04R 148 ft / 45 m 9,706 ft / 2,958 m 44.86° / 42.52° ASPHALT 0 ft / 0 m 417 ft / 127 m PREC-APP CENTERLINE EDGE THRESHOLD REIL-OMNI
22L 148 ft / 45 m 9,706 ft / 2,958 m 224.88° / 222.54° ASPHALT 0 ft / 0 m 525 ft / 160 m PREC-APP CENTERLINE EDGE THRESHOLD REIL-OMNI
22R 148 ft / 45 m 8,992 ft / 2,741 m 224.88° / 222.54° ASPHALT 564 ft / 172 m 0 ft / 0 m PREC-APP CENTERLINE EDGE THRESHOLD REIL-OMNI

LFMD

Details ICAO LFMD (CEQ)
Name Mandelieu
Region France
Timezone Europe/Paris (UTC+2.0)
Stats Elevation 12 ft / 4 m (AMSL)
Location 43.546700° 6.953100°
Runways 3
Magnetic Variation 2.278° E

METAR

LFMD 222030Z AUTO VRB03KT 9999 BKN019 OVC160 19/16 Q1021 NOSIG

Decode

TAF

TAF TAF LFMD 222058Z 2220/2315 CNL

Decode

Destination Runways

ID Width Length Bearing (true/mag) Surface Threshold Overrun Markings Lighting
05 98 ft / 30 m 2,430 ft / 741 m 45.28° / 43.00° ASPHALT 295 ft / 90 m 0 ft / 0 m VISUAL
17 148 ft / 45 m 5,287 ft / 1,611 m 172.58° / 170.30° ASPHALT 689 ft / 210 m 0 ft / 0 m PREC-APP EDGE THRESHOLD REIL-OMNI
17L 164 ft / 50 m 1,872 ft / 571 m 172.60° / 170.32° GRASS 0 ft / 0 m 0 ft / 0 m NONE
23 98 ft / 30 m 2,430 ft / 741 m 225.28° / 223.01° ASPHALT 98 ft / 30 m 0 ft / 0 m VISUAL
35 148 ft / 45 m 5,287 ft / 1,611 m 352.58° / 350.31° ASPHALT 1,148 ft / 350 m 0 ft / 0 m PREC-APP EDGE THRESHOLD REIL-OMNI
35R 164 ft / 50 m 1,872 ft / 571 m 352.60° / 350.32° GRASS 0 ft / 0 m 0 ft / 0 m NONE

Approach Navaids

Runway Type Ident Frequency Range Bearing (true/mag) Slope Elevation
35 LOC-LOC CMD 110.35 MHz 18 nm / 33 km 347.58° / 345.31 ° - 12 ft / 4 m (AMSL)

Popular Alternatives